Terminal Aerodrome Forecast
Issued by NWS Nashville, TN

Home | Current Version | Previous Version | Text Only | Print | Product List | Glossary On
Versions: 1 2 3 4 5 6 7 8 9 10 11 12 13 14 15 16 17 18 19 20
000
FTUS44 KOHX 271447 AAB
TAFBNA
TAF AMD
KBNA 271447Z 2715/2812 15004KT P6SM SCT025
     FM271800 14005KT P6SM VCTS BKN035CB BKN120 BKN250
     FM280200 11004KT P6SM SCT030 BKN120 BKN250
     FM280800 08003KT P6SM SCT100 BKN250=

USA.gov is the U.S. government's official web portal to all federal, state and local government web resources and services.